createdAt,value
2018-08-03T00:00:22.132Z,9.90
2018-08-03T00:02:50.316Z,10.30
2018-08-03T00:05:18.506Z,10.37
2018-08-03T00:07:46.705Z,10.07
2018-08-03T00:10:14.908Z,10.30
2018-08-03T00:12:43.112Z,10.23
2018-08-03T00:15:11.299Z,10.57
2018-08-03T00:17:39.497Z,10.30
2018-08-03T00:20:07.923Z,10.53
2018-08-03T00:22:36.392Z,9.60
2018-08-03T00:25:05.841Z,9.97
2018-08-03T00:27:34.085Z,10.10
2018-08-03T00:30:02.304Z,10.33
2018-08-03T00:32:30.524Z,9.90
2018-08-03T00:34:58.443Z,10.20
2018-08-03T00:37:26.636Z,9.60
2018-08-03T00:39:55.368Z,10.20
2018-08-03T00:42:23.812Z,10.07
2018-08-03T00:44:52.016Z,9.80
2018-08-03T00:47:20.217Z,10.37
2018-08-03T00:49:48.413Z,10.70
2018-08-03T00:52:16.625Z,10.00
2018-08-03T00:54:44.897Z,9.93
2018-08-03T00:57:13.083Z,9.77
2018-08-03T00:59:41.273Z,9.77
2018-08-03T01:02:09.464Z,10.00
2018-08-03T01:04:37.632Z,9.60
2018-08-03T01:07:05.812Z,10.10
2018-08-03T01:09:34.012Z,10.13
2018-08-03T01:12:02.191Z,9.97
2018-08-03T01:14:30.368Z,10.33
2018-08-03T01:16:58.528Z,10.57
2018-08-03T01:19:26.723Z,9.80
2018-08-03T01:21:54.891Z,10.27
2018-08-03T01:24:23.060Z,9.80
2018-08-03T01:26:51.221Z,9.93
2018-08-03T01:29:19.383Z,10.30
2018-08-03T01:31:47.606Z,9.77
2018-08-03T01:34:15.556Z,10.00
2018-08-03T01:36:43.731Z,9.83
2018-08-03T01:39:11.896Z,10.23
2018-08-03T01:41:40.072Z,10.03
2018-08-03T01:44:08.299Z,10.27
2018-08-03T01:46:36.508Z,10.33
2018-08-03T01:49:04.700Z,9.57
2018-08-03T01:51:32.869Z,9.77
2018-08-03T01:54:01.040Z,10.23
2018-08-03T01:56:29.231Z,10.70
2018-08-03T01:58:57.460Z,10.50
2018-08-03T02:01:25.572Z,10.40
2018-08-03T02:03:53.735Z,10.47
2018-08-03T02:06:21.928Z,10.03
2018-08-03T02:08:50.133Z,10.10
2018-08-03T02:11:18.361Z,10.03
2018-08-03T02:13:46.515Z,10.70
2018-08-03T02:16:14.693Z,9.93
2018-08-03T02:18:42.849Z,9.90
2018-08-03T02:21:11.015Z,10.03
2018-08-03T02:23:39.239Z,9.93
2018-08-03T02:26:07.411Z,9.87
2018-08-03T02:28:35.582Z,9.90
2018-08-03T02:31:03.883Z,10.13
2018-08-03T02:33:32.088Z,10.00
2018-08-03T02:36:00.360Z,10.33
2018-08-03T02:38:28.920Z,10.50
2018-08-03T02:40:57.204Z,10.50
2018-08-03T02:43:25.426Z,9.80
2018-08-03T02:45:53.633Z,10.80
2018-08-03T02:48:21.848Z,10.77
2018-08-03T02:50:50.250Z,10.50
2018-08-03T02:53:18.623Z,10.73
2018-08-03T02:55:46.812Z,11.00
2018-08-03T02:58:15.012Z,10.30
2018-08-03T03:00:42.967Z,10.33
2018-08-03T03:03:11.197Z,10.20
2018-08-03T03:05:39.388Z,10.70
2018-08-03T03:08:14.285Z,10.30
2018-08-03T03:10:42.661Z,10.10
2018-08-03T03:13:10.863Z,10.83
2018-08-03T03:15:39.051Z,10.73
2018-08-03T03:18:07.260Z,11.10
2018-08-03T03:20:35.202Z,10.73
2018-08-03T03:23:03.545Z,11.00
2018-08-03T03:25:31.753Z,11.07
2018-08-03T03:28:00.296Z,10.50
2018-08-03T03:30:28.501Z,10.83
2018-08-03T03:32:56.705Z,10.10
2018-08-03T03:35:24.922Z,10.87
2018-08-03T03:37:53.204Z,11.27
2018-08-03T03:40:21.428Z,10.17
2018-08-03T03:42:49.629Z,10.50
2018-08-03T03:45:17.821Z,10.20
2018-08-03T03:47:46.024Z,10.70
2018-08-03T03:50:14.240Z,10.60
2018-08-03T03:52:42.441Z,10.53
2018-08-03T03:55:10.849Z,11.03
2018-08-03T03:57:39.043Z,10.63
2018-08-03T04:00:08.076Z,11.30
2018-08-03T04:02:37.371Z,10.77
2018-08-03T04:05:06.269Z,11.00
2018-08-03T04:07:34.469Z,11.40
2018-08-03T04:10:03.350Z,11.30
2018-08-03T04:12:31.528Z,11.03
2018-08-03T04:14:59.742Z,11.20
2018-08-03T04:17:27.940Z,11.00
2018-08-03T04:19:56.176Z,10.77
2018-08-03T04:22:24.373Z,11.37
2018-08-03T04:24:52.957Z,11.13
2018-08-03T04:27:21.149Z,10.80
2018-08-03T04:29:49.336Z,11.90
2018-08-03T04:32:17.552Z,11.90
2018-08-03T04:34:45.753Z,11.53
2018-08-03T04:37:13.961Z,11.43
2018-08-03T04:39:42.167Z,10.87
2018-08-03T04:42:10.391Z,11.40
2018-08-03T04:44:38.609Z,10.97
2018-08-03T04:47:06.857Z,11.77
2018-08-03T04:49:35.050Z,10.67
2018-08-03T04:52:03.304Z,10.77
2018-08-03T04:54:31.495Z,11.40
2018-08-03T04:56:59.749Z,11.50
2018-08-03T04:59:27.957Z,11.10
2018-08-03T05:01:56.737Z,11.87
2018-08-03T05:04:25.188Z,11.43
2018-08-03T05:06:53.419Z,11.30
2018-08-03T05:09:21.656Z,11.10
2018-08-03T05:11:49.892Z,10.60
2018-08-03T05:14:18.106Z,11.77
2018-08-03T05:16:46.304Z,11.67
2018-08-03T05:19:14.531Z,11.43
2018-08-03T05:21:43.000Z,12.40
2018-08-03T05:24:11.422Z,11.10
2018-08-03T05:26:39.755Z,11.13
2018-08-03T05:29:07.984Z,11.00
2018-08-03T05:31:36.326Z,10.40
2018-08-03T05:34:04.536Z,10.53
2018-08-03T05:36:33.772Z,10.83
2018-08-03T05:39:02.271Z,10.50
2018-08-03T05:41:30.603Z,11.57
2018-08-03T05:43:58.894Z,9.77
2018-08-03T05:46:27.445Z,10.93
2018-08-03T05:48:56.041Z,11.10
2018-08-03T05:51:24.286Z,11.17
2018-08-03T05:53:52.318Z,10.63
2018-08-03T05:56:21.768Z,11.20
2018-08-03T05:58:50.008Z,11.43
2018-08-03T06:01:18.204Z,10.37
2018-08-03T06:03:46.674Z,10.30
2018-08-03T06:06:14.938Z,9.63
2018-08-03T06:08:43.239Z,9.80
2018-08-03T06:11:11.258Z,10.20
2018-08-03T06:13:39.455Z,9.30
2018-08-03T06:16:07.661Z,10.00
2018-08-03T06:18:35.893Z,9.37
2018-08-03T06:21:04.184Z,10.00
2018-08-03T06:23:32.385Z,10.17
2018-08-03T06:26:00.682Z,11.17
2018-08-03T06:28:28.944Z,15.67
2018-08-03T06:30:57.108Z,11.37
2018-08-03T06:33:25.371Z,10.00
2018-08-03T06:35:53.660Z,9.20
2018-08-03T06:38:22.064Z,9.70
2018-08-03T06:40:50.303Z,9.90
2018-08-03T06:43:18.373Z,9.47
2018-08-03T06:45:46.563Z,9.47
2018-08-03T06:48:14.848Z,9.30
2018-08-03T06:50:43.075Z,9.20
2018-08-03T06:53:11.310Z,9.27
2018-08-03T06:55:39.500Z,9.57
2018-08-03T06:58:07.701Z,8.60
2018-08-03T07:00:36.058Z,7.80
2018-08-03T07:03:04.450Z,8.60
2018-08-03T07:05:32.651Z,8.40
2018-08-03T07:08:00.845Z,7.50
2018-08-03T07:10:29.033Z,7.90
2018-08-03T07:12:57.415Z,8.20
2018-08-03T07:15:25.657Z,8.20
2018-08-03T07:17:53.877Z,8.23
2018-08-03T07:20:22.333Z,8.20
2018-08-03T07:22:50.381Z,8.03
2018-08-03T07:25:18.573Z,9.43
2018-08-03T07:27:46.816Z,8.20
2018-08-03T07:30:15.013Z,8.40
2018-08-03T07:32:43.221Z,8.17
2018-08-03T07:35:11.590Z,7.60
2018-08-03T07:37:40.005Z,9.03
2018-08-03T07:40:08.236Z,8.67
2018-08-03T07:42:36.435Z,7.50
2018-08-03T07:45:04.932Z,8.60
2018-08-03T07:47:33.178Z,8.40
2018-08-03T07:50:01.376Z,7.73
2018-08-03T07:52:29.617Z,8.57
2018-08-03T07:54:57.607Z,7.83
2018-08-03T07:57:25.835Z,7.57
2018-08-03T07:59:54.020Z,8.03
2018-08-03T08:02:22.516Z,8.10
2018-08-03T08:04:50.803Z,7.97
2018-08-03T08:07:19.003Z,7.63
2018-08-03T08:09:47.372Z,7.83
2018-08-03T08:12:15.443Z,7.50
2018-08-03T08:14:43.697Z,7.67
2018-08-03T08:17:11.879Z,8.73
2018-08-03T08:19:40.081Z,7.70
2018-08-03T08:22:08.445Z,7.60
2018-08-03T08:24:36.700Z,8.00
2018-08-03T08:27:04.909Z,7.63
2018-08-03T08:29:33.117Z,7.47
2018-08-03T08:32:01.303Z,7.67
2018-08-03T08:34:29.516Z,8.07
2018-08-03T08:36:57.717Z,8.00
2018-08-03T08:39:25.947Z,7.83
2018-08-03T08:41:54.139Z,8.00
2018-08-03T08:44:22.340Z,7.40
2018-08-03T08:46:50.562Z,7.13
2018-08-03T08:49:18.788Z,8.30
2018-08-03T08:51:46.989Z,7.67
2018-08-03T08:54:15.095Z,7.43
2018-08-03T08:56:43.288Z,7.57
2018-08-03T08:59:11.556Z,7.60
2018-08-03T09:01:39.759Z,7.23
2018-08-03T09:04:07.960Z,8.13
2018-08-03T09:06:36.171Z,7.40
2018-08-03T09:09:07.056Z,7.23
2018-08-03T09:11:35.565Z,7.53
2018-08-03T09:14:03.787Z,7.37
2018-08-03T09:16:32.267Z,7.77
2018-08-03T09:19:00.693Z,7.53
2018-08-03T09:21:29.115Z,7.17
2018-08-03T09:23:57.606Z,8.00
2018-08-03T09:26:26.199Z,7.50
2018-08-03T09:28:54.564Z,7.23
2018-08-03T09:31:22.967Z,7.43
2018-08-03T09:33:51.350Z,7.40
2018-08-03T09:36:19.635Z,7.50
2018-08-03T09:38:47.874Z,7.70
2018-08-03T09:41:16.227Z,8.27
2018-08-03T09:43:44.524Z,7.50
2018-08-03T09:46:12.897Z,7.33
2018-08-03T09:48:41.113Z,7.37
2018-08-03T09:51:09.435Z,7.47
2018-08-03T09:53:37.625Z,8.00
2018-08-03T09:56:05.845Z,7.37
2018-08-03T09:58:34.198Z,7.40
2018-08-03T10:01:07.573Z,7.27
2018-08-03T10:03:35.793Z,7.17
2018-08-03T10:06:04.024Z,7.60
2018-08-03T10:08:32.898Z,6.90
2018-08-03T10:11:01.081Z,7.40
2018-08-03T10:13:29.346Z,7.50
2018-08-03T10:15:57.708Z,7.43
2018-08-03T10:18:25.947Z,7.33
2018-08-03T10:20:54.196Z,8.20
2018-08-03T10:23:23.093Z,7.50
2018-08-03T10:25:51.341Z,7.20
2018-08-03T10:28:19.555Z,8.03
2018-08-03T10:30:48.069Z,7.10
2018-08-03T10:33:16.348Z,7.10
2018-08-03T10:35:44.729Z,7.77
2018-08-03T10:38:13.217Z,9.43
2018-08-03T10:40:41.391Z,7.90
2018-08-03T10:43:09.648Z,8.73
2018-08-03T10:45:37.931Z,8.67
2018-08-03T10:48:06.255Z,7.90
2018-08-03T10:50:34.444Z,7.57
2018-08-03T10:53:02.717Z,11.80
2018-08-03T10:55:30.921Z,11.70
2018-08-03T10:57:59.520Z,9.50
2018-08-03T11:00:30.313Z,7.43
2018-08-03T11:02:59.076Z,9.10
2018-08-03T11:05:27.797Z,8.20
2018-08-03T11:07:56.137Z,7.90
2018-08-03T11:10:24.389Z,7.93
2018-08-03T11:12:52.948Z,7.80
2018-08-03T11:15:21.172Z,8.10
2018-08-03T11:17:50.369Z,8.20
2018-08-03T11:20:31.132Z,8.60
2018-08-03T11:22:59.345Z,8.43
2018-08-03T11:25:27.558Z,8.83
2018-08-03T11:27:55.757Z,10.73
2018-08-03T11:30:24.185Z,9.40
2018-08-03T11:32:52.380Z,8.13
2018-08-03T11:35:21.617Z,9.03
2018-08-03T11:37:49.819Z,8.13
2018-08-03T11:40:18.055Z,9.50
2018-08-03T11:42:46.261Z,8.50
2018-08-03T11:45:14.467Z,8.90
2018-08-03T11:47:42.659Z,8.93
2018-08-03T11:50:11.360Z,8.33
2018-08-03T11:52:39.940Z,8.87
2018-08-03T11:55:08.317Z,9.00
2018-08-03T11:57:36.792Z,9.50
2018-08-03T12:00:05.459Z,8.87
2018-08-03T12:02:33.718Z,8.40
2018-08-03T12:05:01.938Z,8.43
2018-08-03T12:07:30.131Z,8.50
2018-08-03T12:09:58.349Z,9.30
2018-08-03T12:12:26.580Z,8.73
2018-08-03T12:14:54.946Z,9.17
2018-08-03T12:17:23.396Z,8.60
2018-08-03T12:19:51.654Z,8.63
2018-08-03T12:22:19.845Z,8.43
2018-08-03T12:24:48.057Z,8.63
2018-08-03T12:27:16.239Z,8.93
2018-08-03T12:29:44.975Z,9.10
2018-08-03T12:32:13.168Z,9.00
2018-08-03T12:34:41.540Z,8.73
2018-08-03T12:37:09.817Z,8.63
2018-08-03T12:39:37.935Z,8.10
2018-08-03T12:42:06.196Z,9.77
2018-08-03T12:44:34.447Z,7.60
2018-08-03T12:47:02.932Z,7.87
2018-08-03T12:49:31.137Z,8.37
2018-08-03T12:51:59.327Z,8.10
2018-08-03T12:54:27.503Z,7.37
2018-08-03T12:56:55.716Z,8.10
2018-08-03T12:59:24.018Z,7.57
2018-08-03T13:01:52.185Z,8.50
2018-08-03T13:04:20.438Z,8.10
2018-08-03T13:06:49.544Z,8.60
2018-08-03T13:09:17.902Z,7.90
2018-08-03T13:11:47.805Z,7.73
2018-08-03T13:14:16.011Z,9.23
2018-08-03T13:16:44.188Z,8.17
2018-08-03T13:19:12.396Z,8.57
2018-08-03T13:21:41.657Z,7.30
2018-08-03T13:24:09.961Z,7.50
2018-08-03T13:26:38.147Z,7.70
2018-08-03T13:29:06.421Z,7.70
2018-08-03T13:31:34.625Z,8.00
2018-08-03T13:34:02.833Z,7.63
2018-08-03T13:36:31.639Z,7.47
2018-08-03T13:38:59.918Z,6.43
2018-08-03T13:41:28.043Z,6.67
2018-08-03T13:43:56.265Z,6.93
2018-08-03T13:46:24.449Z,6.83
2018-08-03T13:48:52.902Z,6.47
2018-08-03T13:51:21.086Z,6.57
2018-08-03T13:53:49.440Z,6.07
2018-08-03T13:56:18.349Z,7.00
2018-08-03T13:58:47.115Z,6.10
2018-08-03T14:01:20.779Z,6.70
2018-08-03T14:03:49.062Z,6.73
2018-08-03T14:06:17.273Z,6.80
2018-08-03T14:08:46.468Z,6.67
2018-08-03T14:11:15.308Z,6.30
2018-08-03T14:13:43.537Z,5.53
2018-08-03T14:16:11.847Z,5.97
2018-08-03T14:18:40.152Z,5.70
2018-08-03T14:21:08.351Z,5.90
2018-08-03T14:23:36.573Z,5.60
2018-08-03T14:26:04.891Z,5.60
2018-08-03T14:28:33.081Z,6.70
2018-08-03T14:31:01.288Z,6.80
2018-08-03T14:33:29.481Z,7.10
2018-08-03T14:35:57.760Z,6.97
2018-08-03T14:38:25.941Z,7.00
2018-08-03T14:40:54.143Z,7.23
2018-08-03T14:43:22.332Z,6.47
2018-08-03T14:45:50.555Z,5.97
2018-08-03T14:48:18.757Z,7.23
2018-08-03T14:50:46.969Z,6.37
2018-08-03T14:53:15.166Z,9.40
2018-08-03T14:55:43.357Z,7.27
2018-08-03T14:58:11.592Z,5.40
2018-08-03T15:00:39.772Z,6.77
2018-08-03T15:03:07.968Z,5.73
2018-08-03T15:05:36.197Z,5.97
2018-08-03T15:08:04.429Z,5.90
2018-08-03T15:10:32.965Z,6.40
2018-08-03T15:13:01.160Z,5.73
2018-08-03T15:15:29.517Z,5.50
2018-08-03T15:17:57.697Z,5.23
2018-08-03T15:20:25.892Z,6.03
2018-08-03T15:22:54.093Z,5.97
2018-08-03T15:25:22.276Z,5.93
2018-08-03T15:27:50.464Z,5.90
2018-08-03T15:30:18.665Z,5.80
2018-08-03T15:32:46.832Z,5.80
2018-08-03T15:35:15.078Z,5.90
2018-08-03T15:37:43.233Z,5.67
2018-08-03T15:40:11.437Z,10.50
2018-08-03T15:42:39.635Z,5.70
2018-08-03T15:45:08.114Z,5.13
2018-08-03T15:47:36.321Z,5.33
2018-08-03T15:50:05.093Z,5.60
2018-08-03T15:52:33.314Z,6.57
2018-08-03T15:55:01.521Z,6.20
2018-08-03T15:57:29.705Z,5.80
2018-08-03T15:59:57.900Z,5.33
2018-08-03T16:02:26.088Z,5.70
2018-08-03T16:04:54.277Z,6.00
2018-08-03T16:07:22.467Z,6.10
2018-08-03T16:09:50.740Z,5.70
2018-08-03T16:12:18.927Z,6.80
2018-08-03T16:14:47.114Z,6.70
2018-08-03T16:17:15.317Z,9.53
2018-08-03T16:19:43.586Z,6.33
2018-08-03T16:22:11.723Z,6.73
2018-08-03T16:24:39.915Z,6.00
2018-08-03T16:27:07.869Z,5.73
2018-08-03T16:29:36.175Z,6.90
2018-08-03T16:32:04.437Z,5.67
2018-08-03T16:34:32.649Z,6.93
2018-08-03T16:37:01.014Z,6.93
2018-08-03T16:39:29.195Z,6.10
2018-08-03T16:41:57.417Z,5.80
2018-08-03T16:44:25.625Z,5.97
2018-08-03T16:46:54.099Z,5.03
2018-08-03T16:49:22.305Z,6.30
2018-08-03T16:51:50.489Z,5.90
2018-08-03T16:54:18.700Z,5.27
2018-08-03T16:56:46.917Z,5.83
2018-08-03T16:59:15.121Z,6.30
2018-08-03T17:01:43.328Z,5.57
2018-08-03T17:04:11.519Z,5.77
2018-08-03T17:06:39.452Z,6.00
2018-08-03T17:09:08.485Z,6.83
2018-08-03T17:11:36.738Z,5.97
2018-08-03T17:14:04.973Z,6.83
2018-08-03T17:16:33.165Z,7.47
2018-08-03T17:19:01.353Z,7.23
2018-08-03T17:21:29.561Z,5.80
2018-08-03T17:23:57.945Z,6.10
2018-08-03T17:26:26.163Z,5.93
2018-08-03T17:28:54.343Z,5.80
2018-08-03T17:31:22.528Z,5.87
2018-08-03T17:33:50.729Z,5.63
2018-08-03T17:36:19.147Z,6.07
2018-08-03T17:38:47.345Z,5.97
2018-08-03T17:41:15.544Z,7.57
2018-08-03T17:43:43.753Z,7.63
2018-08-03T17:46:11.916Z,6.23
2018-08-03T17:48:40.112Z,6.40
2018-08-03T17:51:08.304Z,6.53
2018-08-03T17:53:36.490Z,6.20
2018-08-03T17:56:04.716Z,8.47
2018-08-03T17:58:32.876Z,6.70
2018-08-03T18:01:01.068Z,6.60
2018-08-03T18:03:29.280Z,7.87
2018-08-03T18:05:57.471Z,7.10
2018-08-03T18:08:25.675Z,6.10
2018-08-03T18:10:53.848Z,6.73
2018-08-03T18:13:22.069Z,7.43
2018-08-03T18:15:50.295Z,6.70
2018-08-03T18:18:18.419Z,6.37
2018-08-03T18:20:46.629Z,6.60
2018-08-03T18:23:14.817Z,7.00
2018-08-03T18:25:43.009Z,7.63
2018-08-03T18:28:11.216Z,7.67
2018-08-03T18:30:39.402Z,9.27
2018-08-03T18:33:07.624Z,7.77
2018-08-03T18:35:35.575Z,7.60
2018-08-03T18:38:03.950Z,7.07
2018-08-03T18:40:32.161Z,7.10
2018-08-03T18:43:00.338Z,7.10
2018-08-03T18:45:28.539Z,8.00
2018-08-03T18:47:56.751Z,9.67
2018-08-03T18:50:24.962Z,9.33
2018-08-03T18:52:53.227Z,8.23
2018-08-03T18:55:21.421Z,6.70
2018-08-03T18:57:49.584Z,7.67
2018-08-03T19:00:17.777Z,7.47
2018-08-03T19:02:45.969Z,7.57
2018-08-03T19:05:14.155Z,7.47
2018-08-03T19:07:42.356Z,7.27
2018-08-03T19:10:10.631Z,7.40
2018-08-03T19:12:38.821Z,8.30
2018-08-03T19:15:07.436Z,10.13
2018-08-03T19:17:35.624Z,7.60
2018-08-03T19:20:04.095Z,8.30
2018-08-03T19:22:32.297Z,7.57
2018-08-03T19:25:00.504Z,7.47
2018-08-03T19:27:28.441Z,7.73
2018-08-03T19:29:56.677Z,7.73
2018-08-03T19:32:24.886Z,7.80
2018-08-03T19:34:53.066Z,9.07
2018-08-03T19:37:21.257Z,10.20
2018-08-03T19:39:49.453Z,8.77
2018-08-03T19:42:17.643Z,8.17
2018-08-03T19:44:45.841Z,7.83
2018-08-03T19:47:14.086Z,9.20
2018-08-03T19:49:42.236Z,8.20
2018-08-03T19:52:10.445Z,8.00
2018-08-03T19:54:38.647Z,8.07
2018-08-03T19:57:06.839Z,8.87
2018-08-03T19:59:35.039Z,9.47
2018-08-03T20:02:03.003Z,10.87
2018-08-03T20:04:31.275Z,11.13
2018-08-03T20:06:59.621Z,10.40
2018-08-03T20:09:27.804Z,10.00
2018-08-03T20:11:56.010Z,9.57
2018-08-03T20:14:23.984Z,9.57
2018-08-03T20:16:52.195Z,9.20
2018-08-03T20:19:20.376Z,9.43
2018-08-03T20:21:48.989Z,9.20
2018-08-03T20:24:17.195Z,9.97
2018-08-03T20:26:45.483Z,8.90
2018-08-03T20:29:13.693Z,9.53
2018-08-03T20:31:41.905Z,9.67
2018-08-03T20:34:10.091Z,12.00
2018-08-03T20:36:38.265Z,10.37
2018-08-03T20:39:08.424Z,9.90
2018-08-03T20:41:36.601Z,10.20
2018-08-03T20:44:04.801Z,9.77
2018-08-03T20:46:33.203Z,9.50
2018-08-03T20:49:01.402Z,9.77
2018-08-03T20:51:29.760Z,9.83
2018-08-03T20:53:58.083Z,9.80
2018-08-03T20:56:26.272Z,10.07
2018-08-03T20:58:54.464Z,9.93
2018-08-03T21:01:22.655Z,9.80
2018-08-03T21:03:50.844Z,9.83
2018-08-03T21:06:19.024Z,10.13
2018-08-03T21:08:47.220Z,9.77
2018-08-03T21:11:15.418Z,10.23
2018-08-03T21:13:43.652Z,9.63
2018-08-03T21:16:11.844Z,9.80
2018-08-03T21:18:40.032Z,9.47
2018-08-03T21:21:08.219Z,9.73
2018-08-03T21:23:36.425Z,9.10
2018-08-03T21:26:04.627Z,9.13
2018-08-03T21:28:32.825Z,9.30
2018-08-03T21:31:01.005Z,9.20
2018-08-03T21:33:29.204Z,9.27
2018-08-03T21:35:57.395Z,9.03
2018-08-03T21:38:25.584Z,9.60
2018-08-03T21:40:54.000Z,10.80
2018-08-03T21:43:22.207Z,10.70
2018-08-03T21:45:50.400Z,10.00
2018-08-03T21:48:18.591Z,9.97
2018-08-03T21:50:46.803Z,9.83
2018-08-03T21:53:14.983Z,9.90
2018-08-03T21:55:43.177Z,9.70
2018-08-03T21:58:11.369Z,10.20
2018-08-03T22:00:39.351Z,10.70
2018-08-03T22:03:07.519Z,10.20
2018-08-03T22:05:35.731Z,10.23
2018-08-03T22:08:03.932Z,10.00
2018-08-03T22:10:32.134Z,10.93
2018-08-03T22:13:00.316Z,10.47
2018-08-03T22:15:28.503Z,10.10
2018-08-03T22:17:56.693Z,9.77
2018-08-03T22:20:24.884Z,10.33
2018-08-03T22:22:53.075Z,10.27
2018-08-03T22:25:21.269Z,10.67
2018-08-03T22:27:49.452Z,10.73
2018-08-03T22:30:17.436Z,10.63
2018-08-03T22:32:45.762Z,10.50
2018-08-03T22:35:14.036Z,10.27
2018-08-03T22:37:42.247Z,10.27
2018-08-03T22:40:10.454Z,10.53
2018-08-03T22:42:38.812Z,10.97
2018-08-03T22:45:07.024Z,10.80
2018-08-03T22:47:35.363Z,10.23
2018-08-03T22:50:03.587Z,10.97
2018-08-03T22:52:31.921Z,10.80
2018-08-03T22:55:00.111Z,10.60
2018-08-03T22:57:28.299Z,10.40
2018-08-03T22:59:56.465Z,10.80
2018-08-03T23:02:24.673Z,10.90
2018-08-03T23:04:52.883Z,10.57
2018-08-03T23:07:21.086Z,10.70
2018-08-03T23:09:49.284Z,10.80
2018-08-03T23:12:17.491Z,11.40
2018-08-03T23:14:45.676Z,11.03
2018-08-03T23:17:13.891Z,11.80
2018-08-03T23:19:42.092Z,11.13
2018-08-03T23:22:10.271Z,11.30
2018-08-03T23:24:38.453Z,11.27
2018-08-03T23:27:06.652Z,10.93
2018-08-03T23:29:34.834Z,11.57
2018-08-03T23:32:03.118Z,11.73
2018-08-03T23:34:31.315Z,11.30
2018-08-03T23:36:59.512Z,11.30
2018-08-03T23:39:27.712Z,12.00
2018-08-03T23:41:55.952Z,11.40
2018-08-03T23:44:24.163Z,11.57
2018-08-03T23:46:52.397Z,12.10
2018-08-03T23:49:20.606Z,11.83
2018-08-03T23:51:48.824Z,12.43
2018-08-03T23:54:17.024Z,12.27
2018-08-03T23:56:45.183Z,12.30
2018-08-03T23:59:13.396Z,12.30
